sensor_id;sensor_type;location;lat;lon;timestamp;P1;durP1;ratioP1;P2;durP2;ratioP2
67556;SDS011;54387;53.526;49.300;2023-05-10T00:01:39;3.50;;;1.10;;
67556;SDS011;54387;53.526;49.300;2023-05-10T00:04:05;2.08;;;0.90;;
67556;SDS011;54387;53.526;49.300;2023-05-10T00:06:32;1.80;;;1.00;;
67556;SDS011;54387;53.526;49.300;2023-05-10T00:08:58;1.80;;;1.08;;
67556;SDS011;54387;53.526;49.300;2023-05-10T00:11:24;1.55;;;0.95;;
67556;SDS011;54387;53.526;49.300;2023-05-10T00:13:51;3.40;;;1.15;;
67556;SDS011;54387;53.526;49.300;2023-05-10T00:16:17;2.53;;;1.13;;
67556;SDS011;54387;53.526;49.300;2023-05-10T00:18:43;2.70;;;1.20;;
67556;SDS011;54387;53.526;49.300;2023-05-10T00:21:10;1.80;;;1.10;;
67556;SDS011;54387;53.526;49.300;2023-05-10T00:23:36;4.05;;;1.08;;
67556;SDS011;54387;53.526;49.300;2023-05-10T00:26:02;2.78;;;0.93;;
67556;SDS011;54387;53.526;49.300;2023-05-10T00:28:29;2.47;;;1.13;;
67556;SDS011;54387;53.526;49.300;2023-05-10T00:30:55;2.42;;;0.90;;
67556;SDS011;54387;53.526;49.300;2023-05-10T00:33:21;2.63;;;0.93;;
67556;SDS011;54387;53.526;49.300;2023-05-10T00:35:47;1.73;;;0.98;;
67556;SDS011;54387;53.526;49.300;2023-05-10T00:38:14;1.52;;;0.85;;
67556;SDS011;54387;53.526;49.300;2023-05-10T00:40:40;2.30;;;1.00;;
67556;SDS011;54387;53.526;49.300;2023-05-10T00:43:06;2.58;;;1.98;;
67556;SDS011;54387;53.526;49.300;2023-05-10T00:45:32;2.42;;;1.33;;
67556;SDS011;54387;53.526;49.300;2023-05-10T00:48:02;3.40;;;0.93;;
67556;SDS011;54387;53.526;49.300;2023-05-10T00:50:29;2.85;;;1.13;;
67556;SDS011;54387;53.526;49.300;2023-05-10T00:52:57;3.28;;;1.33;;
67556;SDS011;54387;53.526;49.300;2023-05-10T00:55:24;1.83;;;1.02;;
67556;SDS011;54387;53.526;49.300;2023-05-10T00:57:51;4.78;;;1.65;;
67556;SDS011;54387;53.526;49.300;2023-05-10T01:00:18;2.67;;;1.38;;
67556;SDS011;54387;53.526;49.300;2023-05-10T01:02:45;1.70;;;1.17;;
67556;SDS011;54387;53.526;49.300;2023-05-10T01:05:12;1.90;;;1.10;;
67556;SDS011;54387;53.526;49.300;2023-05-10T01:07:38;2.60;;;1.48;;
67556;SDS011;54387;53.526;49.300;2023-05-10T01:10:05;3.40;;;1.00;;
67556;SDS011;54387;53.526;49.300;2023-05-10T01:12:36;4.93;;;1.10;;
67556;SDS011;54387;53.526;49.300;2023-05-10T01:15:05;2.95;;;1.23;;
67556;SDS011;54387;53.526;49.300;2023-05-10T01:17:34;1.95;;;0.93;;
67556;SDS011;54387;53.526;49.300;2023-05-10T01:20:03;3.05;;;1.25;;
67556;SDS011;54387;53.526;49.300;2023-05-10T01:30:38;1.45;;;1.00;;
67556;SDS011;54387;53.526;49.300;2023-05-10T01:33:09;2.42;;;1.10;;
67556;SDS011;54387;53.526;49.300;2023-05-10T01:35:41;2.72;;;0.95;;
67556;SDS011;54387;53.526;49.300;2023-05-10T01:38:22;2.97;;;1.27;;
67556;SDS011;54387;53.526;49.300;2023-05-10T01:44:10;2.28;;;1.17;;
67556;SDS011;54387;53.526;49.300;2023-05-10T01:46:49;2.15;;;1.20;;
67556;SDS011;54387;53.526;49.300;2023-05-10T01:49:26;2.28;;;1.38;;
67556;SDS011;54387;53.526;49.300;2023-05-10T01:51:59;3.83;;;1.30;;
67556;SDS011;54387;53.526;49.300;2023-05-10T01:54:31;4.68;;;1.90;;
67556;SDS011;54387;53.526;49.300;2023-05-10T01:57:00;5.30;;;1.52;;
67556;SDS011;54387;53.526;49.300;2023-05-10T01:59:30;2.42;;;1.10;;
67556;SDS011;54387;53.526;49.300;2023-05-10T02:02:01;1.95;;;0.93;;
67556;SDS011;54387;53.526;49.300;2023-05-10T02:04:29;5.55;;;1.30;;
67556;SDS011;54387;53.526;49.300;2023-05-10T02:06:58;1.83;;;1.13;;
67556;SDS011;54387;53.526;49.300;2023-05-10T02:09:25;7.00;;;1.52;;
67556;SDS011;54387;53.526;49.300;2023-05-10T02:11:53;6.13;;;1.40;;
67556;SDS011;54387;53.526;49.300;2023-05-10T02:14:22;5.05;;;1.40;;
67556;SDS011;54387;53.526;49.300;2023-05-10T02:16:50;3.58;;;1.50;;
67556;SDS011;54387;53.526;49.300;2023-05-10T02:19:17;3.28;;;1.30;;
67556;SDS011;54387;53.526;49.300;2023-05-10T02:21:45;4.80;;;1.50;;
67556;SDS011;54387;53.526;49.300;2023-05-10T02:24:12;4.03;;;1.35;;
67556;SDS011;54387;53.526;49.300;2023-05-10T02:26:41;5.15;;;1.73;;
67556;SDS011;54387;53.526;49.300;2023-05-10T02:29:09;4.57;;;1.67;;
67556;SDS011;54387;53.526;49.300;2023-05-10T02:31:37;2.95;;;1.38;;
67556;SDS011;54387;53.526;49.300;2023-05-10T02:34:04;5.03;;;1.42;;
67556;SDS011;54387;53.526;49.300;2023-05-10T02:36:33;4.68;;;1.50;;
67556;SDS011;54387;53.526;49.300;2023-05-10T02:39:00;3.13;;;1.40;;
67556;SDS011;54387;53.526;49.300;2023-05-10T02:41:27;3.20;;;1.40;;
67556;SDS011;54387;53.526;49.300;2023-05-10T02:43:56;3.97;;;1.38;;
67556;SDS011;54387;53.526;49.300;2023-05-10T02:46:25;3.05;;;1.65;;
67556;SDS011;54387;53.526;49.300;2023-05-10T02:48:52;4.50;;;1.30;;
67556;SDS011;54387;53.526;49.300;2023-05-10T02:51:18;2.20;;;1.00;;
67556;SDS011;54387;53.526;49.300;2023-05-10T02:53:46;2.25;;;1.20;;
67556;SDS011;54387;53.526;49.300;2023-05-10T02:56:25;4.07;;;1.58;;
67556;SDS011;54387;53.526;49.300;2023-05-10T02:58:57;3.33;;;1.30;;
67556;SDS011;54387;53.526;49.300;2023-05-10T03:01:23;5.03;;;1.30;;
67556;SDS011;54387;53.526;49.300;2023-05-10T03:03:49;4.85;;;1.33;;
67556;SDS011;54387;53.526;49.300;2023-05-10T03:06:16;3.65;;;1.30;;
67556;SDS011;54387;53.526;49.300;2023-05-10T03:08:42;7.30;;;1.50;;
67556;SDS011;54387;53.526;49.300;2023-05-10T03:16:36;3.85;;;1.40;;
67556;SDS011;54387;53.526;49.300;2023-05-10T03:19:20;4.72;;;1.35;;
67556;SDS011;54387;53.526;49.300;2023-05-10T03:21:52;3.22;;;1.00;;
67556;SDS011;54387;53.526;49.300;2023-05-10T03:24:21;4.15;;;1.52;;
67556;SDS011;54387;53.526;49.300;2023-05-10T03:26:50;4.53;;;1.42;;
67556;SDS011;54387;53.526;49.300;2023-05-10T03:29:22;3.00;;;1.20;;
67556;SDS011;54387;53.526;49.300;2023-05-10T03:31:51;5.10;;;1.50;;
67556;SDS011;54387;53.526;49.300;2023-05-10T03:34:22;7.57;;;1.70;;
67556;SDS011;54387;53.526;49.300;2023-05-10T03:36:49;7.97;;;1.42;;
67556;SDS011;54387;53.526;49.300;2023-05-10T03:39:16;8.45;;;1.65;;
67556;SDS011;54387;53.526;49.300;2023-05-10T03:41:42;5.40;;;1.42;;
67556;SDS011;54387;53.526;49.300;2023-05-10T03:44:08;3.78;;;1.70;;
67556;SDS011;54387;53.526;49.300;2023-05-10T03:46:34;8.90;;;1.58;;
67556;SDS011;54387;53.526;49.300;2023-05-10T03:49:01;9.32;;;1.60;;
67556;SDS011;54387;53.526;49.300;2023-05-10T03:51:27;4.95;;;1.65;;
67556;SDS011;54387;53.526;49.300;2023-05-10T03:53:56;5.47;;;1.38;;
67556;SDS011;54387;53.526;49.300;2023-05-10T03:56:22;4.63;;;1.30;;
67556;SDS011;54387;53.526;49.300;2023-05-10T03:58:48;11.18;;;2.83;;
67556;SDS011;54387;53.526;49.300;2023-05-10T04:01:15;12.88;;;2.10;;
67556;SDS011;54387;53.526;49.300;2023-05-10T04:03:41;9.13;;;2.65;;
67556;SDS011;54387;53.526;49.300;2023-05-10T04:06:07;4.70;;;1.75;;
67556;SDS011;54387;53.526;49.300;2023-05-10T04:08:36;2.97;;;1.38;;
67556;SDS011;54387;53.526;49.300;2023-05-10T04:11:07;6.50;;;1.70;;
67556;SDS011;54387;53.526;49.300;2023-05-10T04:13:34;5.20;;;1.50;;
67556;SDS011;54387;53.526;49.300;2023-05-10T04:16:00;3.05;;;1.17;;
67556;SDS011;54387;53.526;49.300;2023-05-10T04:18:27;3.55;;;1.27;;
67556;SDS011;54387;53.526;49.300;2023-05-10T04:20:53;5.18;;;1.52;;
67556;SDS011;54387;53.526;49.300;2023-05-10T04:23:20;3.20;;;1.35;;
67556;SDS011;54387;53.526;49.300;2023-05-10T04:25:46;4.90;;;1.25;;
67556;SDS011;54387;53.526;49.300;2023-05-10T04:28:13;9.70;;;2.42;;
67556;SDS011;54387;53.526;49.300;2023-05-10T04:30:39;7.38;;;1.55;;
67556;SDS011;54387;53.526;49.300;2023-05-10T04:33:06;1.75;;;0.85;;
67556;SDS011;54387;53.526;49.300;2023-05-10T04:35:32;5.10;;;1.20;;
67556;SDS011;54387;53.526;49.300;2023-05-10T04:37:59;5.55;;;1.23;;
67556;SDS011;54387;53.526;49.300;2023-05-10T04:40:26;8.98;;;1.40;;
67556;SDS011;54387;53.526;49.300;2023-05-10T04:42:52;2.90;;;1.00;;
67556;SDS011;54387;53.526;49.300;2023-05-10T04:45:19;2.15;;;1.00;;
67556;SDS011;54387;53.526;49.300;2023-05-10T04:47:46;2.08;;;0.82;;
67556;SDS011;54387;53.526;49.300;2023-05-10T04:50:14;5.65;;;1.52;;
67556;SDS011;54387;53.526;49.300;2023-05-10T04:52:41;3.38;;;1.20;;
67556;SDS011;54387;53.526;49.300;2023-05-10T04:55:08;5.82;;;1.10;;
67556;SDS011;54387;53.526;49.300;2023-05-10T04:57:35;2.95;;;1.13;;
67556;SDS011;54387;53.526;49.300;2023-05-10T05:00:02;4.38;;;1.00;;
67556;SDS011;54387;53.526;49.300;2023-05-10T05:02:29;1.98;;;1.00;;
67556;SDS011;54387;53.526;49.300;2023-05-10T05:04:57;1.70;;;0.90;;
67556;SDS011;54387;53.526;49.300;2023-05-10T05:07:23;4.00;;;1.00;;
67556;SDS011;54387;53.526;49.300;2023-05-10T05:09:50;4.10;;;2.10;;
67556;SDS011;54387;53.526;49.300;2023-05-10T05:12:16;2.78;;;1.00;;
67556;SDS011;54387;53.526;49.300;2023-05-10T05:14:43;2.50;;;1.30;;
67556;SDS011;54387;53.526;49.300;2023-05-10T05:17:09;3.65;;;1.08;;
67556;SDS011;54387;53.526;49.300;2023-05-10T05:19:36;3.92;;;1.30;;
67556;SDS011;54387;53.526;49.300;2023-05-10T05:22:02;4.22;;;1.02;;
67556;SDS011;54387;53.526;49.300;2023-05-10T05:24:28;2.00;;;1.33;;
67556;SDS011;54387;53.526;49.300;2023-05-10T05:26:54;3.55;;;0.90;;
67556;SDS011;54387;53.526;49.300;2023-05-10T05:29:21;3.08;;;0.95;;
67556;SDS011;54387;53.526;49.300;2023-05-10T05:31:47;3.20;;;1.00;;
67556;SDS011;54387;53.526;49.300;2023-05-10T05:34:13;4.35;;;0.80;;
67556;SDS011;54387;53.526;49.300;2023-05-10T05:36:39;3.53;;;1.33;;
67556;SDS011;54387;53.526;49.300;2023-05-10T05:39:06;2.15;;;0.77;;
67556;SDS011;54387;53.526;49.300;2023-05-10T05:41:32;2.08;;;1.00;;
67556;SDS011;54387;53.526;49.300;2023-05-10T05:43:58;4.78;;;1.10;;
67556;SDS011;54387;53.526;49.300;2023-05-10T05:46:25;5.18;;;0.90;;
67556;SDS011;54387;53.526;49.300;2023-05-10T05:48:51;7.43;;;1.00;;
67556;SDS011;54387;53.526;49.300;2023-05-10T05:51:17;3.40;;;0.80;;
67556;SDS011;54387;53.526;49.300;2023-05-10T05:53:43;8.77;;;1.75;;
67556;SDS011;54387;53.526;49.300;2023-05-10T05:56:10;3.20;;;0.82;;
67556;SDS011;54387;53.526;49.300;2023-05-10T05:58:37;2.38;;;1.33;;
67556;SDS011;54387;53.526;49.300;2023-05-10T06:01:03;3.72;;;0.90;;
67556;SDS011;54387;53.526;49.300;2023-05-10T06:03:29;5.43;;;1.00;;
67556;SDS011;54387;53.526;49.300;2023-05-10T06:05:56;3.45;;;1.00;;
67556;SDS011;54387;53.526;49.300;2023-05-10T06:08:22;2.55;;;0.90;;
67556;SDS011;54387;53.526;49.300;2023-05-10T06:10:48;7.15;;;1.40;;
67556;SDS011;54387;53.526;49.300;2023-05-10T06:13:15;1.30;;;0.75;;
67556;SDS011;54387;53.526;49.300;2023-05-10T06:15:42;3.35;;;0.80;;
67556;SDS011;54387;53.526;49.300;2023-05-10T06:18:09;2.83;;;1.20;;
67556;SDS011;54387;53.526;49.300;2023-05-10T06:20:37;2.15;;;0.80;;
67556;SDS011;54387;53.526;49.300;2023-05-10T06:23:06;3.92;;;0.80;;
67556;SDS011;54387;53.526;49.300;2023-05-10T06:25:33;2.15;;;0.75;;
67556;SDS011;54387;53.526;49.300;2023-05-10T06:28:00;2.00;;;1.00;;
67556;SDS011;54387;53.526;49.300;2023-05-10T06:30:27;3.67;;;0.88;;
67556;SDS011;54387;53.526;49.300;2023-05-10T06:32:54;2.67;;;0.73;;
67556;SDS011;54387;53.526;49.300;2023-05-10T06:35:21;3.60;;;0.90;;
67556;SDS011;54387;53.526;49.300;2023-05-10T06:37:47;3.78;;;0.98;;
67556;SDS011;54387;53.526;49.300;2023-05-10T06:40:14;3.83;;;1.10;;
67556;SDS011;54387;53.526;49.300;2023-05-10T06:42:41;4.53;;;1.02;;
67556;SDS011;54387;53.526;49.300;2023-05-10T06:45:07;4.10;;;0.80;;
67556;SDS011;54387;53.526;49.300;2023-05-10T06:47:34;3.25;;;0.98;;
67556;SDS011;54387;53.526;49.300;2023-05-10T06:50:00;2.22;;;1.20;;
67556;SDS011;54387;53.526;49.300;2023-05-10T06:52:27;3.83;;;1.55;;
67556;SDS011;54387;53.526;49.300;2023-05-10T06:54:53;5.03;;;1.52;;
67556;SDS011;54387;53.526;49.300;2023-05-10T06:57:20;2.45;;;0.70;;
67556;SDS011;54387;53.526;49.300;2023-05-10T06:59:46;1.77;;;0.60;;
67556;SDS011;54387;53.526;49.300;2023-05-10T07:02:13;2.35;;;0.80;;
67556;SDS011;54387;53.526;49.300;2023-05-10T07:04:40;1.20;;;0.80;;
67556;SDS011;54387;53.526;49.300;2023-05-10T07:07:06;2.67;;;1.05;;
67556;SDS011;54387;53.526;49.300;2023-05-10T07:09:32;3.38;;;0.80;;
67556;SDS011;54387;53.526;49.300;2023-05-10T07:11:59;1.40;;;0.70;;
67556;SDS011;54387;53.526;49.300;2023-05-10T07:14:25;1.63;;;0.75;;
67556;SDS011;54387;53.526;49.300;2023-05-10T07:16:54;2.58;;;0.70;;
67556;SDS011;54387;53.526;49.300;2023-05-10T07:19:21;3.33;;;0.80;;
67556;SDS011;54387;53.526;49.300;2023-05-10T07:21:48;1.63;;;0.90;;
67556;SDS011;54387;53.526;49.300;2023-05-10T07:24:14;2.35;;;1.20;;
67556;SDS011;54387;53.526;49.300;2023-05-10T07:26:40;3.45;;;1.00;;
67556;SDS011;54387;53.526;49.300;2023-05-10T07:29:06;3.00;;;1.08;;
67556;SDS011;54387;53.526;49.300;2023-05-10T07:31:32;1.10;;;0.80;;
67556;SDS011;54387;53.526;49.300;2023-05-10T07:34:05;3.22;;;0.70;;
67556;SDS011;54387;53.526;49.300;2023-05-10T07:36:37;4.80;;;0.80;;
67556;SDS011;54387;53.526;49.300;2023-05-10T07:39:03;5.90;;;1.55;;
67556;SDS011;54387;53.526;49.300;2023-05-10T07:41:30;1.45;;;0.80;;
67556;SDS011;54387;53.526;49.300;2023-05-10T07:43:56;2.03;;;0.63;;
67556;SDS011;54387;53.526;49.300;2023-05-10T07:46:22;0.98;;;0.80;;
67556;SDS011;54387;53.526;49.300;2023-05-10T07:48:48;3.03;;;0.95;;
67556;SDS011;54387;53.526;49.300;2023-05-10T07:51:15;4.13;;;1.13;;
67556;SDS011;54387;53.526;49.300;2023-05-10T07:53:41;2.97;;;1.00;;
67556;SDS011;54387;53.526;49.300;2023-05-10T07:56:21;1.65;;;1.00;;
67556;SDS011;54387;53.526;49.300;2023-05-10T07:58:47;2.20;;;1.00;;
67556;SDS011;54387;53.526;49.300;2023-05-10T08:01:13;1.05;;;0.60;;
67556;SDS011;54387;53.526;49.300;2023-05-10T08:03:40;0.70;;;0.60;;
67556;SDS011;54387;53.526;49.300;2023-05-10T08:06:06;2.22;;;0.63;;
67556;SDS011;54387;53.526;49.300;2023-05-10T08:08:32;1.23;;;0.80;;
67556;SDS011;54387;53.526;49.300;2023-05-10T08:10:58;4.43;;;1.30;;
67556;SDS011;54387;53.526;49.300;2023-05-10T08:13:24;1.27;;;0.77;;
67556;SDS011;54387;53.526;49.300;2023-05-10T08:15:51;2.63;;;0.85;;
67556;SDS011;54387;53.526;49.300;2023-05-10T08:18:18;4.13;;;1.13;;
67556;SDS011;54387;53.526;49.300;2023-05-10T08:20:45;0.85;;;0.80;;
67556;SDS011;54387;53.526;49.300;2023-05-10T08:23:14;3.50;;;0.82;;
67556;SDS011;54387;53.526;49.300;2023-05-10T08:25:40;2.25;;;1.30;;
67556;SDS011;54387;53.526;49.300;2023-05-10T08:28:07;2.60;;;1.17;;
67556;SDS011;54387;53.526;49.300;2023-05-10T08:30:33;4.75;;;1.55;;
67556;SDS011;54387;53.526;49.300;2023-05-10T08:32:59;3.38;;;0.93;;
67556;SDS011;54387;53.526;49.300;2023-05-10T08:35:25;2.92;;;1.00;;
67556;SDS011;54387;53.526;49.300;2023-05-10T08:37:51;2.42;;;1.17;;
67556;SDS011;54387;53.526;49.300;2023-05-10T08:40:19;3.60;;;1.20;;
67556;SDS011;54387;53.526;49.300;2023-05-10T08:42:51;3.45;;;1.50;;
67556;SDS011;54387;53.526;49.300;2023-05-10T08:45:33;2.28;;;1.20;;
67556;SDS011;54387;53.526;49.300;2023-05-10T08:48:03;2.72;;;1.30;;
67556;SDS011;54387;53.526;49.300;2023-05-10T08:50:31;3.30;;;1.50;;
67556;SDS011;54387;53.526;49.300;2023-05-10T08:52:59;3.05;;;1.50;;
67556;SDS011;54387;53.526;49.300;2023-05-10T08:55:27;2.40;;;1.50;;
67556;SDS011;54387;53.526;49.300;2023-05-10T08:57:53;4.38;;;1.48;;
67556;SDS011;54387;53.526;49.300;2023-05-10T09:00:20;2.30;;;1.45;;
67556;SDS011;54387;53.526;49.300;2023-05-10T09:02:49;4.38;;;1.65;;
67556;SDS011;54387;53.526;49.300;2023-05-10T09:05:15;2.38;;;1.48;;
67556;SDS011;54387;53.526;49.300;2023-05-10T09:07:43;2.42;;;1.77;;
67556;SDS011;54387;53.526;49.300;2023-05-10T09:10:09;3.95;;;1.95;;
67556;SDS011;54387;53.526;49.300;2023-05-10T09:12:37;3.17;;;1.67;;
67556;SDS011;54387;53.526;49.300;2023-05-10T09:15:04;5.88;;;2.20;;
67556;SDS011;54387;53.526;49.300;2023-05-10T09:17:32;6.85;;;2.80;;
67556;SDS011;54387;53.526;49.300;2023-05-10T09:20:01;4.57;;;2.60;;
67556;SDS011;54387;53.526;49.300;2023-05-10T09:22:32;5.40;;;2.45;;
67556;SDS011;54387;53.526;49.300;2023-05-10T09:27:40;4.22;;;1.90;;
67556;SDS011;54387;53.526;49.300;2023-05-10T09:30:10;2.28;;;1.60;;
67556;SDS011;54387;53.526;49.300;2023-05-10T09:32:42;7.13;;;1.95;;
67556;SDS011;54387;53.526;49.300;2023-05-10T09:35:13;3.70;;;1.88;;
67556;SDS011;54387;53.526;49.300;2023-05-10T09:37:44;3.42;;;2.10;;
67556;SDS011;54387;53.526;49.300;2023-05-10T09:42:52;6.03;;;2.47;;
67556;SDS011;54387;53.526;49.300;2023-05-10T09:45:23;3.72;;;3.42;;
67556;SDS011;54387;53.526;49.300;2023-05-10T09:47:50;5.55;;;2.42;;
67556;SDS011;54387;53.526;49.300;2023-05-10T09:50:17;5.13;;;2.50;;
67556;SDS011;54387;53.526;49.300;2023-05-10T09:52:51;7.68;;;2.60;;
67556;SDS011;54387;53.526;49.300;2023-05-10T09:55:24;4.60;;;2.92;;
67556;SDS011;54387;53.526;49.300;2023-05-10T09:58:03;9.05;;;6.05;;
67556;SDS011;54387;53.526;49.300;2023-05-10T10:00:34;4.57;;;2.97;;
67556;SDS011;54387;53.526;49.300;2023-05-10T10:03:05;5.47;;;2.00;;
67556;SDS011;54387;53.526;49.300;2023-05-10T10:05:35;4.50;;;2.20;;
67556;SDS011;54387;53.526;49.300;2023-05-10T10:08:02;4.22;;;2.72;;
67556;SDS011;54387;53.526;49.300;2023-05-10T10:10:32;4.78;;;3.70;;
67556;SDS011;54387;53.526;49.300;2023-05-10T10:12:59;6.60;;;3.50;;
67556;SDS011;54387;53.526;49.300;2023-05-10T10:15:28;5.28;;;4.22;;
67556;SDS011;54387;53.526;49.300;2023-05-10T10:17:55;5.30;;;4.28;;
67556;SDS011;54387;53.526;49.300;2023-05-10T10:20:22;7.20;;;4.75;;
67556;SDS011;54387;53.526;49.300;2023-05-10T10:22:49;5.15;;;3.90;;
67556;SDS011;54387;53.526;49.300;2023-05-10T10:25:16;7.32;;;2.97;;
67556;SDS011;54387;53.526;49.300;2023-05-10T10:30:30;6.72;;;4.05;;
67556;SDS011;54387;53.526;49.300;2023-05-10T10:36:11;6.85;;;3.83;;
67556;SDS011;54387;53.526;49.300;2023-05-10T10:41:30;4.53;;;3.63;;
67556;SDS011;54387;53.526;49.300;2023-05-10T10:47:03;4.70;;;3.22;;
67556;SDS011;54387;53.526;49.300;2023-05-10T10:49:38;5.00;;;3.00;;
67556;SDS011;54387;53.526;49.300;2023-05-10T10:52:25;7.13;;;3.10;;
67556;SDS011;54387;53.526;49.300;2023-05-10T10:54:58;3.42;;;3.00;;
67556;SDS011;54387;53.526;49.300;2023-05-10T10:57:28;7.40;;;3.90;;
67556;SDS011;54387;53.526;49.300;2023-05-10T11:03:03;5.63;;;3.90;;
67556;SDS011;54387;53.526;49.300;2023-05-10T11:05:43;5.07;;;4.50;;
67556;SDS011;54387;53.526;49.300;2023-05-10T11:08:11;8.63;;;5.40;;
67556;SDS011;54387;53.526;49.300;2023-05-10T11:10:39;9.38;;;5.47;;
67556;SDS011;54387;53.526;49.300;2023-05-10T11:13:37;5.53;;;4.35;;
67556;SDS011;54387;53.526;49.300;2023-05-10T11:16:11;5.88;;;3.55;;
67556;SDS011;54387;53.526;49.300;2023-05-10T11:18:56;8.05;;;3.95;;
67556;SDS011;54387;53.526;49.300;2023-05-10T11:21:33;4.15;;;3.75;;
67556;SDS011;54387;53.526;49.300;2023-05-10T11:24:13;7.57;;;5.05;;
67556;SDS011;54387;53.526;49.300;2023-05-10T11:26:45;4.45;;;3.22;;
67556;SDS011;54387;53.526;49.300;2023-05-10T11:29:15;6.43;;;3.22;;
67556;SDS011;54387;53.526;49.300;2023-05-10T11:31:43;6.78;;;3.55;;
67556;SDS011;54387;53.526;49.300;2023-05-10T11:34:25;8.60;;;3.63;;
67556;SDS011;54387;53.526;49.300;2023-05-10T11:36:56;6.55;;;4.10;;
67556;SDS011;54387;53.526;49.300;2023-05-10T11:39:26;11.25;;;5.47;;
67556;SDS011;54387;53.526;49.300;2023-05-10T11:41:54;4.63;;;3.63;;
67556;SDS011;54387;53.526;49.300;2023-05-10T11:44:21;6.80;;;3.80;;
67556;SDS011;54387;53.526;49.300;2023-05-10T11:46:47;6.25;;;4.10;;
67556;SDS011;54387;53.526;49.300;2023-05-10T11:49:14;5.65;;;4.13;;
67556;SDS011;54387;53.526;49.300;2023-05-10T11:51:41;6.88;;;4.57;;
67556;SDS011;54387;53.526;49.300;2023-05-10T11:54:09;5.38;;;3.60;;
67556;SDS011;54387;53.526;49.300;2023-05-10T11:56:39;5.68;;;3.75;;
67556;SDS011;54387;53.526;49.300;2023-05-10T11:59:06;5.95;;;3.85;;
67556;SDS011;54387;53.526;49.300;2023-05-10T12:01:33;7.88;;;3.83;;
67556;SDS011;54387;53.526;49.300;2023-05-10T12:04:03;8.02;;;4.68;;
67556;SDS011;54387;53.526;49.300;2023-05-10T12:06:30;10.73;;;4.30;;
67556;SDS011;54387;53.526;49.300;2023-05-10T12:08:59;6.03;;;3.88;;
67556;SDS011;54387;53.526;49.300;2023-05-10T12:14:03;5.53;;;3.90;;
67556;SDS011;54387;53.526;49.300;2023-05-10T12:16:30;7.40;;;4.47;;
67556;SDS011;54387;53.526;49.300;2023-05-10T12:18:57;7.90;;;4.45;;
67556;SDS011;54387;53.526;49.300;2023-05-10T12:21:26;8.40;;;4.40;;
67556;SDS011;54387;53.526;49.300;2023-05-10T12:23:54;8.07;;;3.83;;
67556;SDS011;54387;53.526;49.300;2023-05-10T12:26:25;10.50;;;7.53;;
67556;SDS011;54387;53.526;49.300;2023-05-10T12:28:55;9.48;;;3.92;;
67556;SDS011;54387;53.526;49.300;2023-05-10T12:31:53;7.78;;;4.25;;
67556;SDS011;54387;53.526;49.300;2023-05-10T12:34:24;6.70;;;4.55;;
67556;SDS011;54387;53.526;49.300;2023-05-10T12:37:02;13.10;;;4.80;;
67556;SDS011;54387;53.526;49.300;2023-05-10T12:39:38;7.18;;;3.90;;
67556;SDS011;54387;53.526;49.300;2023-05-10T12:42:06;6.10;;;4.20;;
67556;SDS011;54387;53.526;49.300;2023-05-10T12:44:33;7.50;;;3.45;;
67556;SDS011;54387;53.526;49.300;2023-05-10T12:46:59;4.57;;;2.85;;
67556;SDS011;54387;53.526;49.300;2023-05-10T12:49:25;8.68;;;2.53;;
67556;SDS011;54387;53.526;49.300;2023-05-10T12:51:51;4.13;;;2.17;;
67556;SDS011;54387;53.526;49.300;2023-05-10T12:54:17;3.65;;;2.00;;
67556;SDS011;54387;53.526;49.300;2023-05-10T12:56:44;5.35;;;2.33;;
67556;SDS011;54387;53.526;49.300;2023-05-10T12:59:10;9.45;;;2.88;;
67556;SDS011;54387;53.526;49.300;2023-05-10T13:01:36;7.35;;;3.03;;
67556;SDS011;54387;53.526;49.300;2023-05-10T13:04:02;5.03;;;2.30;;
67556;SDS011;54387;53.526;49.300;2023-05-10T13:06:28;4.72;;;2.10;;
67556;SDS011;54387;53.526;49.300;2023-05-10T13:08:55;6.80;;;2.60;;
67556;SDS011;54387;53.526;49.300;2023-05-10T13:11:23;5.57;;;2.60;;
67556;SDS011;54387;53.526;49.300;2023-05-10T13:13:49;4.55;;;2.53;;
67556;SDS011;54387;53.526;49.300;2023-05-10T13:16:15;7.28;;;2.60;;
67556;SDS011;54387;53.526;49.300;2023-05-10T13:18:43;5.68;;;2.05;;
67556;SDS011;54387;53.526;49.300;2023-05-10T13:21:10;7.20;;;2.80;;
67556;SDS011;54387;53.526;49.300;2023-05-10T13:23:37;6.55;;;2.50;;
67556;SDS011;54387;53.526;49.300;2023-05-10T13:26:03;7.32;;;2.53;;
67556;SDS011;54387;53.526;49.300;2023-05-10T13:28:30;3.53;;;2.10;;
67556;SDS011;54387;53.526;49.300;2023-05-10T13:30:57;5.05;;;2.50;;
67556;SDS011;54387;53.526;49.300;2023-05-10T13:33:25;6.38;;;1.80;;
67556;SDS011;54387;53.526;49.300;2023-05-10T13:35:51;5.25;;;1.77;;
67556;SDS011;54387;53.526;49.300;2023-05-10T13:38:18;2.80;;;1.70;;
67556;SDS011;54387;53.526;49.300;2023-05-10T13:40:44;4.70;;;1.90;;
67556;SDS011;54387;53.526;49.300;2023-05-10T13:43:11;3.80;;;1.85;;
67556;SDS011;54387;53.526;49.300;2023-05-10T13:45:37;3.25;;;1.48;;
67556;SDS011;54387;53.526;49.300;2023-05-10T13:48:04;3.65;;;1.52;;
67556;SDS011;54387;53.526;49.300;2023-05-10T13:50:31;4.13;;;2.15;;
67556;SDS011;54387;53.526;49.300;2023-05-10T13:52:58;8.13;;;1.98;;
67556;SDS011;54387;53.526;49.300;2023-05-10T13:55:29;2.95;;;1.48;;
67556;SDS011;54387;53.526;49.300;2023-05-10T13:57:56;5.00;;;2.00;;
67556;SDS011;54387;53.526;49.300;2023-05-10T14:00:23;6.38;;;1.73;;
67556;SDS011;54387;53.526;49.300;2023-05-10T14:02:50;4.93;;;1.70;;
67556;SDS011;54387;53.526;49.300;2023-05-10T14:05:16;2.30;;;1.75;;
67556;SDS011;54387;53.526;49.300;2023-05-10T14:07:43;6.60;;;1.80;;
67556;SDS011;54387;53.526;49.300;2023-05-10T14:10:09;4.85;;;1.45;;
67556;SDS011;54387;53.526;49.300;2023-05-10T14:12:35;3.72;;;1.65;;
67556;SDS011;54387;53.526;49.300;2023-05-10T14:15:02;18.20;;;2.42;;
67556;SDS011;54387;53.526;49.300;2023-05-10T14:17:31;3.40;;;1.85;;
67556;SDS011;54387;53.526;49.300;2023-05-10T14:19:58;5.22;;;1.48;;
67556;SDS011;54387;53.526;49.300;2023-05-10T14:22:24;5.13;;;1.40;;
67556;SDS011;54387;53.526;49.300;2023-05-10T14:24:50;2.83;;;1.15;;
67556;SDS011;54387;53.526;49.300;2023-05-10T14:27:17;8.52;;;1.30;;
67556;SDS011;54387;53.526;49.300;2023-05-10T14:29:43;3.30;;;1.13;;
67556;SDS011;54387;53.526;49.300;2023-05-10T14:32:09;3.53;;;1.20;;
67556;SDS011;54387;53.526;49.300;2023-05-10T14:34:35;2.17;;;1.10;;
67556;SDS011;54387;53.526;49.300;2023-05-10T14:37:02;2.58;;;0.98;;
67556;SDS011;54387;53.526;49.300;2023-05-10T14:39:28;9.40;;;5.70;;
67556;SDS011;54387;53.526;49.300;2023-05-10T14:41:55;6.60;;;2.70;;
67556;SDS011;54387;53.526;49.300;2023-05-10T14:44:21;7.45;;;1.52;;
67556;SDS011;54387;53.526;49.300;2023-05-10T14:46:49;6.75;;;2.60;;
67556;SDS011;54387;53.526;49.300;2023-05-10T14:49:15;9.20;;;3.50;;
67556;SDS011;54387;53.526;49.300;2023-05-10T14:51:41;4.38;;;2.25;;
67556;SDS011;54387;53.526;49.300;2023-05-10T14:54:07;5.75;;;1.15;;
67556;SDS011;54387;53.526;49.300;2023-05-10T14:56:34;1.90;;;1.40;;
67556;SDS011;54387;53.526;49.300;2023-05-10T14:59:00;3.45;;;1.63;;
67556;SDS011;54387;53.526;49.300;2023-05-10T15:01:26;1.88;;;1.20;;
67556;SDS011;54387;53.526;49.300;2023-05-10T15:03:52;7.65;;;1.90;;
67556;SDS011;54387;53.526;49.300;2023-05-10T15:06:22;4.10;;;1.40;;
67556;SDS011;54387;53.526;49.300;2023-05-10T15:08:50;3.70;;;1.40;;
67556;SDS011;54387;53.526;49.300;2023-05-10T15:11:17;4.90;;;1.30;;
67556;SDS011;54387;53.526;49.300;2023-05-10T15:13:43;4.93;;;1.70;;
67556;SDS011;54387;53.526;49.300;2023-05-10T15:16:12;3.70;;;1.33;;
67556;SDS011;54387;53.526;49.300;2023-05-10T15:18:38;4.72;;;1.33;;